Time;durP1;ratioP1;P1;durP2;ratioP2;P2;SDS_P1;SDS_P2;PMS_P1;PMS_P2;Temp;Humidity;BMP_temperature;BMP_pressure;BME280_temperature;BME280_humidity;BME280_pressure;Samples;Min_cycle;Max_cycle;Signal;HPM_P1;HPM_P2
2021/01/11 00:01:26;;;;;;;43.75;15.90;;;;;;;2.73;59.59;101807.53;5055369;28;20040;-74
2021/01/11 00:03:51;;;;;;;45.00;15.07;;;;;;;2.70;59.87;101812.66;5053603;28;20063;-75
2021/01/11 00:06:17;;;;;;;44.88;14.52;;;;;;;2.70;59.83;101801.47;5054915;28;20025;-74
2021/01/11 00:08:43;;;;;;;41.63;15.95;;;;;;;3.11;58.46;101799.19;5051873;28;20033;-73
2021/01/11 00:11:08;;;;;;;48.25;16.15;;;;;;;2.86;59.31;101805.03;5054676;28;20036;-73
2021/01/11 00:13:34;;;;;;;51.25;16.92;;;;;;;3.21;58.57;101796.66;5052735;28;20037;-73
2021/01/11 00:15:59;;;;;;;50.80;15.85;;;;;;;2.71;59.31;101786.00;5054625;28;20298;-75
2021/01/11 00:18:25;;;;;;;48.75;15.88;;;;;;;2.82;59.65;101793.78;5053383;28;20509;-74
2021/01/11 00:20:50;;;;;;;49.75;16.98;;;;;;;2.82;59.73;101793.78;5053728;28;20029;-74
2021/01/11 00:23:16;;;;;;;40.63;14.10;;;;;;;2.52;60.49;101782.41;5054528;28;20385;-76
2021/01/11 00:25:42;;;;;;;43.45;15.48;;;;;;;3.06;58.73;101782.75;5053280;28;20233;-74
2021/01/11 00:28:07;;;;;;;49.42;14.77;;;;;;;2.81;59.79;101776.59;5056603;28;20037;-73
2021/01/11 00:30:35;;;;;;;43.50;15.98;;;;;;;2.00;61.98;101765.56;5054222;28;20029;-75
2021/01/11 00:33:00;;;;;;;41.38;15.38;;;;;;;2.37;61.04;101769.38;5056369;28;20075;-75
2021/01/11 00:35:26;;;;;;;44.75;14.80;;;;;;;2.84;59.79;101776.59;5049250;28;20033;-75
2021/01/11 00:37:51;;;;;;;47.15;16.20;;;;;;;1.93;62.32;101773.25;5056033;28;20028;-74
2021/01/11 00:40:17;;;;;;;50.67;15.18;;;;;;;2.52;61.01;101764.31;5054736;28;20032;-74
2021/01/11 00:42:42;;;;;;;45.08;15.20;;;;;;;2.54;60.06;101759.19;5053141;28;20409;-74
2021/01/11 00:45:09;;;;;;;45.92;17.00;;;;;;;2.83;59.71;101763.69;5055791;28;20053;-74
2021/01/11 00:47:39;;;;;;;50.90;15.80;;;;;;;2.79;59.82;101772.28;5053513;28;20112;-74
2021/01/11 00:50:05;;;;;;;45.00;13.13;;;;;;;2.94;59.63;101765.47;5053902;28;20044;-75
2021/01/11 00:52:34;;;;;;;46.72;15.50;;;;;;;2.63;60.15;101761.84;5054127;28;20503;-73
2021/01/11 00:55:00;;;;;;;37.63;13.55;;;;;;;2.65;60.32;101752.38;5048283;28;20246;-73
2021/01/11 00:57:28;;;;;;;37.40;14.18;;;;;;;3.20;58.72;101738.91;5052243;28;20059;-73
2021/01/11 01:00:04;;;;;;;45.67;15.30;;;;;;;2.74;59.69;101738.69;5049656;28;20028;-75
2021/01/11 01:02:45;;;;;;;38.88;13.63;;;;;;;2.49;61.08;101747.97;5054602;28;20043;-76
2021/01/11 01:05:12;;;;;;;36.75;14.25;;;;;;;2.92;59.31;101737.94;5054353;28;20033;-76
2021/01/11 01:07:42;;;;;;;51.88;14.68;;;;;;;2.62;60.27;101747.19;5054063;28;20025;-74
2021/01/11 01:10:09;;;;;;;45.25;14.07;;;;;;;2.41;61.12;101736.72;5054674;28;20041;-76
2021/01/11 01:12:35;;;;;;;36.83;12.32;;;;;;;3.02;59.16;101734.53;5053470;28;20033;-76
2021/01/11 01:15:00;;;;;;;38.28;15.02;;;;;;;3.00;59.18;101731.06;5054084;28;20036;-76
2021/01/11 01:17:26;;;;;;;46.03;13.75;;;;;;;2.72;60.04;101724.91;5044738;28;20036;-76
2021/01/11 01:19:52;;;;;;;37.67;14.00;;;;;;;3.26;58.67;101727.75;5053956;28;20505;-75
2021/01/11 01:22:17;;;;;;;44.38;16.50;;;;;;;2.57;60.59;101726.50;5052637;28;20033;-74
2021/01/11 01:24:43;;;;;;;43.10;15.38;;;;;;;2.55;61.02;101729.94;5051863;28;20432;-72
2021/01/11 01:27:09;;;;;;;50.17;15.25;;;;;;;2.20;61.25;101725.38;5051015;28;20033;-73
2021/01/11 01:29:34;;;;;;;49.47;15.30;;;;;;;1.85;62.56;101728.50;5050131;28;20071;-73
2021/01/11 01:32:00;;;;;;;39.25;15.15;;;;;;;2.58;60.33;101729.97;5053020;28;20623;-74
2021/01/11 01:34:25;;;;;;;52.72;16.50;;;;;;;2.41;60.97;101729.84;5051683;28;20435;-73
2021/01/11 01:36:51;;;;;;;48.30;14.57;;;;;;;2.42;61.59;101728.13;5052828;28;20289;-72
2021/01/11 01:39:16;;;;;;;51.45;17.48;;;;;;;3.18;59.08;101731.19;5055329;28;20094;-72
2021/01/11 01:41:43;;;;;;;58.25;18.30;;;;;;;2.93;59.59;101726.72;5051878;28;20376;-71
2021/01/11 01:44:09;;;;;;;55.10;17.92;;;;;;;2.44;61.57;101729.00;5036392;28;20037;-74
2021/01/11 01:46:34;;;;;;;51.92;16.85;;;;;;;2.22;61.62;101728.84;5050595;28;20058;-73
2021/01/11 01:49:00;;;;;;;52.08;17.20;;;;;;;2.82;60.34;101729.25;5051386;28;20048;-73
2021/01/11 01:51:26;;;;;;;59.88;18.00;;;;;;;1.99;62.07;101728.63;5048112;28;20029;-71
2021/01/11 01:53:52;;;;;;;60.47;19.27;;;;;;;2.74;60.66;101724.06;5052635;28;20075;-72
2021/01/11 01:56:18;;;;;;;56.70;17.35;;;;;;;2.69;60.50;101730.03;5052718;28;20025;-73
2021/01/11 01:58:46;;;;;;;58.38;18.08;;;;;;;2.94;59.79;101720.72;5051173;28;20526;-72
2021/01/11 02:01:12;;;;;;;54.17;17.85;;;;;;;3.50;58.09;101716.69;5054125;28;20033;-71
2021/01/11 02:03:38;;;;;;;55.55;18.15;;;;;;;2.67;60.09;101722.28;5051688;28;20021;-70
2021/01/11 02:06:04;;;;;;;59.15;16.75;;;;;;;3.32;58.75;101708.00;5065329;28;20036;-73
2021/01/11 02:08:44;;;;;;;55.67;18.08;;;;;;;3.13;59.26;101722.53;5045308;28;20037;-72
2021/01/11 02:11:16;;;;;;;53.10;18.17;;;;;;;3.11;59.14;101707.88;5054138;28;20382;-71
2021/01/11 02:14:14;;;;;;;54.88;18.65;;;;;;;3.28;58.82;101713.13;5051032;28;20108;-72
2021/01/11 02:17:18;;;;;;;50.30;16.98;;;;;;;2.53;60.31;101708.41;5050527;28;20037;-70
2021/01/11 02:20:22;;;;;;;59.30;17.25;;;;;;;3.15;59.03;101697.56;5048315;28;20517;-72
2021/01/11 02:23:13;;;;;;;49.28;17.05;;;;;;;2.90;59.87;101712.09;5059408;28;20493;-72
2021/01/11 02:25:49;;;;;;;54.45;18.00;;;;;;;2.34;61.55;101697.97;5052348;28;20037;-72
2021/01/11 02:28:48;;;;;;;47.47;17.30;;;;;;;2.69;60.35;101688.72;5052448;28;20079;-73
2021/01/11 02:31:16;;;;;;;46.70;15.65;;;;;;;2.54;60.48;101694.66;5051641;28;20033;-70
2021/01/11 02:33:44;;;;;;;54.17;17.63;;;;;;;2.48;61.19;101694.63;5052386;28;20044;-70
2021/01/11 02:36:11;;;;;;;49.25;18.02;;;;;;;2.48;61.24;101692.91;5051990;28;20033;-70
2021/01/11 02:38:37;;;;;;;53.58;16.45;;;;;;;3.15;59.34;101678.63;5051825;28;20122;-70
2021/01/11 02:41:04;;;;;;;49.42;15.80;;;;;;;3.25;58.79;101685.56;5051818;28;20160;-75
2021/01/11 02:43:30;;;;;;;54.97;17.05;;;;;;;2.89;59.89;101692.31;5032140;28;20039;-75
2021/01/11 02:45:55;;;;;;;42.20;15.80;;;;;;;2.02;62.50;101694.25;5056263;28;20025;-76
2021/01/11 02:48:52;;;;;;;59.10;17.17;;;;;;;2.46;61.43;101697.19;5056914;28;20048;-76
2021/01/11 02:51:48;;;;;;;48.65;17.58;;;;;;;2.86;59.77;101681.09;5055471;28;20089;-75
2021/01/11 02:54:25;;;;;;;48.20;17.17;;;;;;;2.39;60.87;101684.25;5057402;28;20111;-76
2021/01/11 02:57:28;;;;;;;53.03;18.23;;;;;;;2.55;60.86;101678.31;5055789;28;20066;-76
2021/01/11 03:00:00;;;;;;;46.45;15.73;;;;;;;3.15;58.34;101678.63;5055655;28;20025;-76
2021/01/11 03:02:27;;;;;;;44.13;15.55;;;;;;;3.16;59.00;101665.72;5056224;28;20029;-75
2021/01/11 03:04:54;;;;;;;42.55;16.38;;;;;;;2.72;60.29;101661.22;5035636;28;20429;-76
2021/01/11 03:07:20;;;;;;;45.97;16.00;;;;;;;3.04;59.46;101659.63;5058344;28;20059;-76
2021/01/11 03:09:48;;;;;;;39.33;15.02;;;;;;;3.05;59.46;101661.38;5054005;28;20043;-76
2021/01/11 03:12:14;;;;;;;43.05;13.73;;;;;;;3.26;58.62;101650.25;5055671;28;20029;-76
2021/01/11 03:14:39;;;;;;;43.72;14.57;;;;;;;2.73;60.17;101647.47;5054024;28;20049;-76
2021/01/11 03:17:06;;;;;;;40.42;14.95;;;;;;;2.77;60.03;101640.59;5057180;28;20044;-76
2021/01/11 03:19:31;;;;;;;32.80;13.38;;;;;;;3.14;58.97;101639.03;5056150;28;20139;-76
2021/01/11 03:21:57;;;;;;;38.45;13.13;;;;;;;3.29;58.46;101638.25;5052875;28;20025;-72
2021/01/11 03:24:23;;;;;;;37.65;13.63;;;;;;;3.22;58.62;101635.59;5051084;28;20033;-72
2021/01/11 03:26:49;;;;;;;46.35;14.80;;;;;;;2.91;59.59;101631.19;5051323;28;20028;-72
2021/01/11 03:29:16;;;;;;;37.42;14.90;;;;;;;2.13;61.95;101631.63;5052559;28;20162;-72
2021/01/11 03:31:42;;;;;;;37.83;12.63;;;;;;;2.55;60.78;101626.69;5049789;28;20423;-71
2021/01/11 03:34:08;;;;;;;36.08;13.57;;;;;;;2.54;60.81;101622.41;5052316;28;20044;-71
2021/01/11 03:36:38;;;;;;;44.17;13.20;;;;;;;2.53;60.60;101625.81;5051129;28;20025;-75
2021/01/11 03:39:05;;;;;;;36.03;13.95;;;;;;;2.79;60.00;101607.03;5039474;28;20032;-75
2021/01/11 03:41:35;;;;;;;27.45;11.25;;;;;;;2.26;61.43;101619.66;5053296;28;20037;-74
2021/01/11 03:44:00;;;;;;;34.85;12.65;;;;;;;2.61;60.17;101608.69;5054163;28;20393;-74
2021/01/11 03:46:28;;;;;;;28.77;11.38;;;;;;;2.11;61.97;101606.69;5053063;28;20020;-74
2021/01/11 03:48:54;;;;;;;21.52;9.60;;;;;;;1.98;61.57;101608.28;5051905;28;20028;-75
2021/01/11 03:51:20;;;;;;;27.70;9.82;;;;;;;2.02;62.14;101591.09;5051036;28;20549;-75
2021/01/11 03:53:45;;;;;;;33.97;11.57;;;;;;;2.22;61.15;101594.72;5052957;28;20032;-74
2021/01/11 03:56:11;;;;;;;27.52;10.18;;;;;;;2.65;59.72;101599.25;5054062;28;20040;-74
2021/01/11 03:58:37;;;;;;;19.23;10.27;;;;;;;2.97;59.16;101602.78;5046510;28;20064;-74
2021/01/11 04:01:03;;;;;;;23.52;8.52;;;;;;;2.24;60.28;101580.13;5053823;28;20029;-74
2021/01/11 04:03:29;;;;;;;22.45;8.95;;;;;;;1.94;61.42;101594.50;5050062;28;20056;-75
2021/01/11 04:05:56;;;;;;;25.10;9.80;;;;;;;1.94;61.96;101597.09;5054512;28;20021;-75
2021/01/11 04:08:23;;;;;;;20.45;9.68;;;;;;;2.76;59.39;101588.09;5054067;28;20691;-75
2021/01/11 04:10:49;;;;;;;21.73;8.55;;;;;;;2.49;60.06;101593.16;5052140;28;20129;-75
2021/01/11 04:13:15;;;;;;;19.45;8.15;;;;;;;2.11;61.09;101586.03;5046989;28;20063;-73
2021/01/11 04:15:41;;;;;;;21.75;8.15;;;;;;;2.49;59.94;101582.81;5051175;28;20059;-71
2021/01/11 04:18:06;;;;;;;19.23;7.47;;;;;;;2.29;60.30;101570.66;5053472;28;20028;-71
2021/01/11 04:20:32;;;;;;;16.52;7.07;;;;;;;2.88;58.69;101566.63;5050660;28;20028;-71
2021/01/11 04:22:58;;;;;;;19.80;7.28;;;;;;;2.27;60.64;101572.38;5042613;28;20445;-74
2021/01/11 04:25:25;;;;;;;19.10;6.78;;;;;;;1.49;62.46;101569.22;5052400;28;20048;-74
2021/01/11 04:27:51;;;;;;;14.43;7.22;;;;;;;2.19;60.81;101563.72;5047909;28;20102;-78
2021/01/11 04:30:18;;;;;;;20.08;7.82;;;;;;;2.13;60.82;101569.72;5055121;28;20402;-77
2021/01/11 04:32:44;;;;;;;12.05;5.68;;;;;;;2.69;58.59;101559.66;5054591;28;20041;-77
2021/01/11 04:35:11;;;;;;;17.35;6.80;;;;;;;1.89;61.45;101570.41;5053587;28;20033;-77
2021/01/11 04:37:39;;;;;;;16.17;6.90;;;;;;;1.56;61.79;101572.72;5054452;28;20032;-77
2021/01/11 04:40:06;;;;;;;17.30;6.85;;;;;;;2.31;60.19;101558.66;5053187;28;20039;-77
2021/01/11 04:42:50;;;;;;;16.20;6.57;;;;;;;1.81;61.51;101561.75;5051758;28;20037;-75
2021/01/11 04:45:18;;;;;;;14.95;7.07;;;;;;;1.77;62.44;101552.25;5068193;28;20047;-74
2021/01/11 04:47:44;;;;;;;17.70;7.40;;;;;;;2.33;60.38;101541.47;5034092;28;20120;-73
2021/01/11 04:50:10;;;;;;;20.70;9.18;;;;;;;1.52;62.80;101554.63;5053491;28;20059;-75
2021/01/11 04:52:35;;;;;;;20.85;8.73;;;;;;;1.61;61.87;101537.53;5052334;28;20036;-75
2021/01/11 04:55:06;;;;;;;23.35;9.30;;;;;;;2.31;60.43;101538.00;5053426;28;20044;-73
2021/01/11 04:57:38;;;;;;;21.92;8.07;;;;;;;2.28;60.28;101540.56;5047715;28;20025;-73
2021/01/11 05:00:10;;;;;;;23.45;9.20;;;;;;;1.88;61.30;101537.72;5051781;28;20041;-73
2021/01/11 05:02:42;;;;;;;20.58;8.90;;;;;;;2.53;59.50;101538.09;5045158;28;20040;-73
2021/01/11 05:05:09;;;;;;;30.90;10.85;;;;;;;1.98;61.59;101532.66;5051157;28;20033;-74
2021/01/11 05:07:34;;;;;;;28.58;10.65;;;;;;;1.96;61.14;101547.25;5052602;28;20052;-73
2021/01/11 05:10:00;;;;;;;24.85;10.90;;;;;;;2.21;60.65;101531.06;5053425;28;20560;-73
2021/01/11 05:12:27;;;;;;;31.83;11.80;;;;;;;2.75;58.70;101523.53;5051817;28;20033;-75
2021/01/11 05:15:20;;;;;;;27.83;12.32;;;;;;;1.71;61.98;101523.88;5048763;28;20039;-73
2021/01/11 05:17:46;;;;;;;37.47;12.07;;;;;;;2.32;60.17;101513.06;5049821;28;20036;-74
2021/01/11 05:20:14;;;;;;;33.03;12.88;;;;;;;2.44;59.94;101520.00;5051394;28;20063;-73
2021/01/11 05:22:47;;;;;;;34.90;13.18;;;;;;;2.11;60.66;101516.41;5050429;28;20409;-73
2021/01/11 05:25:17;;;;;;;32.42;12.98;;;;;;;2.31;59.99;101512.22;5047448;28;20025;-74
2021/01/11 05:27:44;;;;;;;32.38;13.20;;;;;;;2.10;60.91;101518.09;5065294;28;20033;-74
2021/01/11 05:30:28;;;;;;;35.83;12.48;;;;;;;2.18;60.82;101513.00;5043737;28;20025;-75
2021/01/11 05:32:54;;;;;;;37.00;13.15;;;;;;;1.91;61.96;101506.84;5047930;28;20091;-75
2021/01/11 05:35:24;;;;;;;33.90;12.02;;;;;;;2.07;61.29;101497.47;5049824;28;20067;-74
2021/01/11 05:37:51;;;;;;;39.00;15.57;;;;;;;1.89;61.37;101492.22;5051363;28;20516;-75
2021/01/11 05:40:24;;;;;;;32.30;14.50;;;;;;;2.30;60.55;101500.16;5051369;28;20021;-75
2021/01/11 05:42:53;;;;;;;34.38;13.77;;;;;;;2.06;61.14;101494.88;5047406;28;20084;-75
2021/01/11 05:45:28;;;;;;;36.28;14.35;;;;;;;1.71;62.22;101498.13;5032234;28;20021;-75
2021/01/11 05:47:57;;;;;;;32.38;13.63;;;;;;;2.30;60.43;101484.69;5049533;28;20029;-75
2021/01/11 05:50:28;;;;;;;29.45;13.43;;;;;;;2.06;61.45;101500.88;5049209;28;20035;-75
2021/01/11 05:52:54;;;;;;;38.63;14.88;;;;;;;1.47;63.18;101499.66;5050298;28;20040;-75
2021/01/11 05:55:31;;;;;;;37.70;14.73;;;;;;;2.04;61.60;101506.88;5047476;28;20032;-75
2021/01/11 05:58:01;;;;;;;36.45;14.48;;;;;;;1.81;62.55;101499.88;5049331;28;20033;-75
2021/01/11 06:00:29;;;;;;;43.40;15.65;;;;;;;2.32;60.61;101495.88;5050016;28;20510;-75
2021/01/11 06:02:56;;;;;;;45.63;14.65;;;;;;;2.09;61.58;101500.06;5050466;28;20027;-75
2021/01/11 06:05:22;;;;;;;35.35;14.77;;;;;;;1.82;62.28;101511.06;5050193;28;20036;-75
2021/01/11 06:07:49;;;;;;;37.15;14.85;;;;;;;2.39;60.40;101493.31;5052730;28;20335;-75
2021/01/11 06:10:15;;;;;;;40.78;13.77;;;;;;;2.07;61.72;101494.03;5048834;28;20025;-75
2021/01/11 06:12:42;;;;;;;37.03;14.60;;;;;;;1.91;62.00;101490.50;5051823;28;20093;-75
2021/01/11 06:15:10;;;;;;;37.67;14.65;;;;;;;2.24;61.16;101482.09;5053566;28;20514;-76
2021/01/11 06:17:37;;;;;;;35.05;13.27;;;;;;;2.09;61.88;101479.44;5053479;28;20032;-75
2021/01/11 06:20:05;;;;;;;37.97;14.38;;;;;;;2.83;59.05;101474.53;5056036;28;20039;-75
2021/01/11 06:22:46;;;;;;;36.60;14.93;;;;;;;2.77;59.79;101481.38;5054644;28;20309;-73
2021/01/11 06:25:18;;;;;;;32.75;15.23;;;;;;;2.19;60.99;101476.03;5055531;28;20029;-73
2021/01/11 06:27:55;;;;;;;35.42;12.90;;;;;;;1.88;61.77;101475.88;5049093;28;20513;-73
2021/01/11 06:30:33;;;;;;;27.73;13.23;;;;;;;2.58;59.98;101466.72;5056426;28;20052;-73
2021/01/11 06:33:24;;;;;;;30.08;14.07;;;;;;;1.72;62.74;101467.19;5056677;28;20071;-75
2021/01/11 06:35:52;;;;;;;45.58;15.15;;;;;;;1.62;62.77;101456.81;5055271;28;20041;-76
2021/01/11 06:38:25;;;;;;;37.40;15.02;;;;;;;2.50;60.42;101450.34;5056688;28;20021;-73
2021/01/11 06:41:03;;;;;;;40.47;15.93;;;;;;;1.15;63.92;101447.84;5056491;28;20135;-76
2021/01/11 06:43:38;;;;;;;45.92;16.08;;;;;;;1.25;64.02;101433.34;5047985;28;20040;-78
2021/01/11 06:46:04;;;;;;;45.65;15.73;;;;;;;2.26;61.15;101436.50;5055577;28;20021;-76
2021/01/11 06:48:34;;;;;;;49.30;19.75;;;;;;;1.49;63.62;101427.53;5048568;28;20028;-75
2021/01/11 06:51:10;;;;;;;42.13;16.83;;;;;;;2.19;61.14;101427.03;5056302;28;20037;-77
2021/01/11 06:53:37;;;;;;;48.45;17.05;;;;;;;2.27;60.98;101421.91;5049558;28;20590;-75
2021/01/11 06:56:08;;;;;;;47.42;17.08;;;;;;;2.69;59.52;101425.44;5051492;28;20105;-75
2021/01/11 06:58:41;;;;;;;38.20;15.40;;;;;;;2.44;59.95;101434.84;5055003;28;20048;-75
2021/01/11 07:01:11;;;;;;;37.55;17.27;;;;;;;1.66;62.44;101437.94;5056270;28;20041;-76
2021/01/11 07:03:53;;;;;;;40.78;15.95;;;;;;;2.36;60.86;101432.25;5054784;28;20029;-76
2021/01/11 07:06:48;;;;;;;38.45;14.88;;;;;;;1.17;63.49;101447.84;5048795;28;20056;-75
2021/01/11 07:09:19;;;;;;;51.28;18.75;;;;;;;1.80;62.64;101436.31;5045687;28;20041;-76
2021/01/11 07:11:50;;;;;;;50.92;17.48;;;;;;;2.56;60.30;101443.50;5053838;28;20041;-75
2021/01/11 07:14:21;;;;;;;41.92;15.48;;;;;;;2.17;60.68;101433.03;5049031;28;20486;-73
2021/01/11 07:16:53;;;;;;;46.38;16.10;;;;;;;2.00;61.65;101438.09;5051757;28;20040;-73
2021/01/11 07:19:21;;;;;;;47.40;18.83;;;;;;;2.04;61.80;101445.91;5050433;28;20080;-73
2021/01/11 07:21:49;;;;;;;43.17;17.55;;;;;;;1.50;63.06;101426.66;5050943;28;20363;-73
2021/01/11 07:24:15;;;;;;;45.00;17.88;;;;;;;1.94;62.12;101437.22;5047687;28;20506;-74
2021/01/11 07:26:40;;;;;;;45.10;16.15;;;;;;;2.02;61.53;101426.09;5049279;28;20263;-74
2021/01/11 07:29:08;;;;;;;45.85;18.05;;;;;;;1.69;62.64;101432.81;5051102;28;20029;-74
2021/01/11 07:31:39;;;;;;;42.65;16.52;;;;;;;2.21;60.95;101424.47;5048120;28;20083;-73
2021/01/11 07:34:08;;;;;;;38.10;16.75;;;;;;;1.65;62.94;101423.34;5052686;28;20409;-74
2021/01/11 07:36:50;;;;;;;49.35;16.42;;;;;;;1.41;63.41;101429.19;5049446;28;20044;-73
2021/01/11 07:39:27;;;;;;;38.40;14.60;;;;;;;2.40;60.46;101415.94;5052279;28;20580;-73
2021/01/11 07:42:04;;;;;;;43.45;14.35;;;;;;;2.48;60.14;101415.94;5060425;28;20041;-74
2021/01/11 07:44:33;;;;;;;41.85;15.73;;;;;;;1.73;62.17;101403.63;5051650;28;20039;-75
2021/01/11 07:47:09;;;;;;;39.90;14.65;;;;;;;1.65;63.00;101410.44;5046347;28;20385;-75
2021/01/11 07:49:38;;;;;;;37.97;14.52;;;;;;;1.76;61.99;101411.38;5045273;28;20029;-76
2021/01/11 07:52:09;;;;;;;40.17;14.70;;;;;;;2.14;61.11;101400.38;5053481;28;20148;-74
2021/01/11 07:54:36;;;;;;;36.78;14.23;;;;;;;2.24;60.93;101402.13;5051879;28;20051;-76
2021/01/11 07:57:02;;;;;;;36.15;13.57;;;;;;;2.00;61.56;101409.75;5049715;28;20048;-75
2021/01/11 07:59:30;;;;;;;40.33;15.30;;;;;;;1.49;63.22;101397.47;5051269;28;20123;-75
2021/01/11 08:01:57;;;;;;;39.22;13.75;;;;;;;1.78;62.43;101391.63;5051483;28;20021;-75
2021/01/11 08:04:22;;;;;;;35.53;15.32;;;;;;;2.20;60.88;101392.66;5052972;28;20084;-75
2021/01/11 08:06:57;;;;;;;42.67;15.20;;;;;;;2.01;61.60;101390.88;5050668;28;20418;-74
2021/01/11 08:09:28;;;;;;;43.45;16.52;;;;;;;1.20;63.22;101398.97;5051069;28;20033;-75
2021/01/11 08:12:16;;;;;;;39.17;15.32;;;;;;;1.91;62.13;101398.56;5049999;28;20041;-74
2021/01/11 08:14:45;;;;;;;39.80;14.80;;;;;;;1.79;61.90;101402.78;5045525;28;20290;-74
2021/01/11 08:17:22;;;;;;;34.83;12.93;;;;;;;1.67;62.07;101398.44;5051913;28;20029;-75
2021/01/11 08:19:51;;;;;;;40.13;14.60;;;;;;;2.06;61.11;101399.47;5048178;28;20382;-74
2021/01/11 08:22:18;;;;;;;36.17;13.55;;;;;;;1.77;61.57;101395.03;5050465;28;20524;-74
2021/01/11 08:24:48;;;;;;;45.17;14.63;;;;;;;1.08;63.92;101402.28;5051670;28;20123;-77
2021/01/11 08:27:17;;;;;;;38.17;13.65;;;;;;;1.76;61.64;101398.47;5083365;28;20033;-76
2021/01/11 08:29:42;;;;;;;35.67;14.32;;;;;;;2.13;60.70;101385.72;5051370;28;20397;-74
2021/01/11 08:32:10;;;;;;;43.58;16.45;;;;;;;2.15;60.63;101394.34;5051003;28;20025;-74
2021/01/11 08:34:35;;;;;;;46.78;16.55;;;;;;;1.79;61.60;101393.34;5051617;28;20029;-75
2021/01/11 08:37:30;;;;;;;50.15;16.75;;;;;;;1.15;63.67;101396.38;5051069;28;20174;-74
2021/01/11 08:39:59;;;;;;;44.97;15.48;;;;;;;1.97;60.80;101396.84;5026988;28;20082;-75
2021/01/11 08:42:29;;;;;;;42.25;15.40;;;;;;;1.37;62.83;101405.06;5050098;28;20287;-74
2021/01/11 08:44:55;;;;;;;42.60;15.07;;;;;;;1.72;61.66;101402.75;5044552;28;20044;-75
2021/01/11 08:47:26;;;;;;;41.88;16.67;;;;;;;1.55;61.87;101399.25;5050529;28;20032;-74
2021/01/11 08:49:59;;;;;;;42.65;15.23;;;;;;;1.24;62.54;101411.03;5051484;28;20516;-75
2021/01/11 08:52:33;;;;;;;53.10;18.10;;;;;;;1.67;61.63;101401.00;5049505;28;20037;-75
2021/01/11 08:55:12;;;;;;;52.78;18.17;;;;;;;2.50;58.96;101388.41;5051044;28;20024;-75
2021/01/11 08:57:38;;;;;;;50.38;17.85;;;;;;;1.73;60.89;101396.75;5050222;28;20133;-74
2021/01/11 09:00:12;;;;;;;52.13;17.08;;;;;;;1.52;61.30;101379.44;5045981;28;20284;-75
2021/01/11 09:02:47;;;;;;;41.92;15.15;;;;;;;1.20;61.96;101397.25;5050435;28;20040;-73
2021/01/11 09:05:18;;;;;;;47.00;18.42;;;;;;;1.87;60.96;101396.81;5046448;28;20258;-76
2021/01/11 09:07:44;;;;;;;48.78;18.00;;;;;;;1.27;62.63;101398.16;5050698;28;20028;-74
2021/01/11 09:10:23;;;;;;;50.47;18.10;;;;;;;1.75;61.36;101396.75;5051672;28;20159;-73
2021/01/11 09:12:49;;;;;;;43.15;15.70;;;;;;;1.02;63.24;101394.53;5049660;28;20041;-74
2021/01/11 09:15:24;;;;;;;50.05;16.02;;;;;;;0.95;63.87;101401.34;5049605;28;20092;-75
2021/01/11 09:18:01;;;;;;;44.15;14.88;;;;;;;0.53;64.62;101412.97;5047310;28;20037;-74
2021/01/11 09:20:26;;;;;;;43.53;16.25;;;;;;;1.59;61.56;101400.97;5048955;28;20033;-74
2021/01/11 09:22:55;;;;;;;45.13;15.23;;;;;;;1.56;61.35;101395.81;5050940;28;20037;-74
2021/01/11 09:25:20;;;;;;;51.05;14.77;;;;;;;1.48;61.31;101398.34;5049236;28;20021;-74
2021/01/11 09:27:48;;;;;;;51.03;15.23;;;;;;;1.35;62.23;101405.91;5050511;28;20035;-73
2021/01/11 09:30:15;;;;;;;53.40;15.68;;;;;;;1.46;61.77;101392.31;5048529;28;20036;-74
2021/01/11 09:32:43;;;;;;;43.35;14.57;;;;;;;1.58;61.66;101401.81;5049494;28;20029;-74
2021/01/11 09:35:09;;;;;;;41.67;16.90;;;;;;;0.63;64.08;101401.91;5051486;28;20017;-74
2021/01/11 09:37:35;;;;;;;48.58;15.57;;;;;;;1.28;62.63;101387.00;5051219;28;20025;-74
2021/01/11 09:40:00;;;;;;;43.38;15.15;;;;;;;1.49;62.04;101392.31;5051193;28;20036;-74
2021/01/11 09:42:26;;;;;;;39.83;14.00;;;;;;;0.66;64.55;101390.81;5045921;28;20057;-74
2021/01/11 09:44:51;;;;;;;36.30;13.55;;;;;;;0.79;63.34;101392.63;5055038;28;20044;-74
2021/01/11 09:47:17;;;;;;;37.63;12.90;;;;;;;0.37;64.85;101390.50;5055131;28;20028;-73
2021/01/11 09:49:42;;;;;;;38.78;12.70;;;;;;;1.28;61.93;101394.72;5053125;28;20043;-75
2021/01/11 09:52:08;;;;;;;28.77;9.90;;;;;;;0.85;63.13;101389.25;5055112;28;20033;-75
2021/01/11 09:54:33;;;;;;;35.97;11.48;;;;;;;1.71;60.68;101380.44;5049124;28;20032;-75
2021/01/11 09:56:59;;;;;;;33.45;11.32;;;;;;;0.69;64.02;101381.38;5054176;28;20039;-75
2021/01/11 09:59:26;;;;;;;40.95;13.48;;;;;;;0.89;63.11;101370.41;5051346;28;20043;-75
2021/01/11 10:01:53;;;;;;;29.77;11.23;;;;;;;1.53;61.53;101375.19;5052666;28;20167;-75
2021/01/11 10:04:19;;;;;;;40.92;11.60;;;;;;;1.38;61.70;101372.47;5051919;28;20033;-75
2021/01/11 10:06:46;;;;;;;29.33;11.00;;;;;;;1.53;61.50;101372.59;5035257;28;20124;-75
2021/01/11 10:09:13;;;;;;;35.75;11.45;;;;;;;1.09;62.41;101358.53;5054362;28;20025;-74
2021/01/11 10:11:39;;;;;;;29.20;11.55;;;;;;;1.26;61.95;101375.81;5055111;28;20700;-74
2021/01/11 10:14:06;;;;;;;32.08;12.18;;;;;;;1.76;60.63;101370.13;5058413;28;20033;-74
2021/01/11 10:16:32;;;;;;;33.83;11.43;;;;;;;1.42;61.57;101376.84;5056525;28;20025;-73
2021/01/11 10:18:58;;;;;;;30.23;11.25;;;;;;;1.49;61.54;101368.28;5056698;28;20035;-75
2021/01/11 10:21:25;;;;;;;31.58;11.50;;;;;;;1.07;62.51;101361.97;5056769;28;20068;-74
2021/01/11 10:23:51;;;;;;;35.90;11.65;;;;;;;1.09;62.35;101357.69;5055762;28;20036;-74
2021/01/11 10:26:21;;;;;;;36.35;11.88;;;;;;;1.43;61.69;101361.38;5057708;28;20035;-73
2021/01/11 10:28:50;;;;;;;30.67;11.25;;;;;;;1.60;60.94;101355.47;5055675;28;20040;-74
2021/01/11 10:31:19;;;;;;;37.58;12.77;;;;;;;1.69;60.99;101355.50;5046758;28;20032;-75
2021/01/11 10:33:46;;;;;;;34.03;12.07;;;;;;;1.81;61.14;101352.97;5055742;28;20044;-74
2021/01/11 10:36:13;;;;;;;30.98;10.98;;;;;;;1.73;60.93;101340.06;5056181;28;20095;-74
2021/01/11 10:38:38;;;;;;;35.22;11.88;;;;;;;1.27;62.04;101351.81;5054308;28;20163;-75
2021/01/11 10:41:04;;;;;;;31.83;11.52;;;;;;;0.54;64.53;101347.78;5056211;28;20163;-75
2021/01/11 10:43:30;;;;;;;32.60;12.15;;;;;;;1.07;63.79;101328.50;5054815;28;20036;-74
2021/01/11 10:45:56;;;;;;;29.67;10.50;;;;;;;1.63;61.73;101324.53;5058269;28;20025;-75
2021/01/11 10:48:22;;;;;;;36.58;14.43;;;;;;;1.69;61.37;101315.13;5054464;28;20131;-73
2021/01/11 10:50:47;;;;;;;34.08;13.07;;;;;;;1.28;62.86;101317.47;5054782;28;20086;-73
2021/01/11 10:53:15;;;;;;;36.35;12.88;;;;;;;1.69;61.73;101309.97;5054882;28;20032;-75
2021/01/11 10:55:41;;;;;;;38.25;13.48;;;;;;;2.09;60.41;101306.66;5055478;28;20043;-75
2021/01/11 10:58:06;;;;;;;36.63;13.45;;;;;;;1.45;61.47;101303.00;5055412;28;20116;-74
2021/01/11 11:00:32;;;;;;;37.55;13.85;;;;;;;1.89;60.82;101302.31;5054284;28;20025;-75
2021/01/11 11:02:57;;;;;;;44.17;16.25;;;;;;;1.93;61.02;101293.72;5057360;28;20036;-74
2021/01/11 11:05:23;;;;;;;41.58;14.80;;;;;;;1.29;61.53;101289.16;5053740;28;20039;-75
2021/01/11 11:07:50;;;;;;;35.45;13.23;;;;;;;1.36;62.78;101290.03;5055793;28;20033;-74
2021/01/11 11:10:15;;;;;;;39.58;15.07;;;;;;;1.49;62.31;101281.53;5054845;28;20039;-75
2021/01/11 11:12:42;;;;;;;43.55;15.20;;;;;;;1.74;61.71;101266.19;5054881;28;20048;-74
2021/01/11 11:15:08;;;;;;;38.53;15.65;;;;;;;2.40;59.96;101268.00;5055272;28;20033;-73
2021/01/11 11:17:33;;;;;;;45.42;15.95;;;;;;;2.11;60.81;101261.13;5054323;28;20036;-74
2021/01/11 11:19:59;;;;;;;41.95;15.38;;;;;;;1.20;62.40;101241.91;5055388;28;20069;-74
2021/01/11 11:22:26;;;;;;;38.70;16.77;;;;;;;1.44;62.32;101242.03;5052977;28;20025;-72
2021/01/11 11:24:52;;;;;;;44.38;16.90;;;;;;;2.02;61.13;101243.91;5052079;28;20056;-73
2021/01/11 11:27:20;;;;;;;39.65;15.90;;;;;;;1.37;63.22;101235.09;5052469;28;20458;-72